createdAt,value
2023-04-15T00:01:08.311Z,8.80
2023-04-15T00:03:35.782Z,8.60
2023-04-15T00:06:03.756Z,8.60
2023-04-15T00:08:31.248Z,8.70
2023-04-15T00:11:02.855Z,8.60
2023-04-15T00:13:33.015Z,8.70
2023-04-15T00:16:00.088Z,8.60
2023-04-15T00:18:27.126Z,8.70
2023-04-15T00:20:54.486Z,8.70
2023-04-15T00:23:21.393Z,8.70
2023-04-15T00:25:48.333Z,8.70
2023-04-15T00:28:15.234Z,8.80
2023-04-15T00:30:42.509Z,8.80
2023-04-15T00:33:09.807Z,8.90
2023-04-15T00:35:37.557Z,9.00
2023-04-15T00:38:06.105Z,9.00
2023-04-15T00:40:33.445Z,9.00
2023-04-15T00:43:00.502Z,9.00
2023-04-15T00:45:30.394Z,9.10
2023-04-15T00:47:57.450Z,8.90
2023-04-15T00:50:24.543Z,8.90
2023-04-15T00:52:52.015Z,8.90
2023-04-15T00:55:19.429Z,8.90
2023-04-15T00:57:46.596Z,8.90
2023-04-15T01:00:13.904Z,8.90
2023-04-15T01:02:41.194Z,9.00
2023-04-15T01:05:08.634Z,9.00
2023-04-15T01:07:35.933Z,9.00
2023-04-15T01:10:04.725Z,8.90
2023-04-15T01:12:33.189Z,8.80
2023-04-15T01:15:00.538Z,8.80
2023-04-15T01:17:27.848Z,8.70
2023-04-15T01:19:57.999Z,8.80
2023-04-15T01:22:26.862Z,8.80
2023-04-15T01:25:13.300Z,8.90
2023-04-15T01:27:45.444Z,8.80
2023-04-15T01:30:12.595Z,8.60
2023-04-15T01:32:39.614Z,8.70
2023-04-15T01:35:07.714Z,8.50
2023-04-15T01:37:34.712Z,8.50
2023-04-15T01:40:01.684Z,8.60
2023-04-15T01:42:29.255Z,8.50
2023-04-15T01:44:56.460Z,8.40
2023-04-15T01:47:23.817Z,8.40
2023-04-15T01:49:51.007Z,8.40
2023-04-15T01:52:18.468Z,8.30
2023-04-15T01:54:45.833Z,8.20
2023-04-15T01:57:13.018Z,8.10
2023-04-15T01:59:39.921Z,8.20
2023-04-15T02:02:07.180Z,8.30
2023-04-15T02:04:34.313Z,8.30
2023-04-15T02:07:01.788Z,8.40
2023-04-15T02:09:28.780Z,8.50
2023-04-15T02:11:55.714Z,8.20
2023-04-15T02:14:22.725Z,8.20
2023-04-15T02:16:49.678Z,8.10
2023-04-15T02:19:16.708Z,8.00
2023-04-15T02:21:43.672Z,8.20
2023-04-15T02:24:12.235Z,8.20
2023-04-15T02:26:39.262Z,8.20
2023-04-15T02:29:06.285Z,8.20
2023-04-15T02:31:37.088Z,8.20
2023-04-15T02:34:04.881Z,8.30
2023-04-15T02:36:32.063Z,8.30
2023-04-15T02:38:59.133Z,8.30
2023-04-15T02:41:27.893Z,8.10
2023-04-15T02:43:55.078Z,7.90
2023-04-15T02:46:23.158Z,7.80
2023-04-15T02:48:50.755Z,7.80
2023-04-15T02:51:22.872Z,7.80
2023-04-15T02:53:50.342Z,7.90
2023-04-15T02:56:19.458Z,8.00
2023-04-15T02:58:46.505Z,8.00
2023-04-15T03:01:13.790Z,8.00
2023-04-15T03:03:41.084Z,8.00
2023-04-15T03:06:09.174Z,8.10
2023-04-15T03:08:36.576Z,8.20
2023-04-15T03:11:04.077Z,8.20
2023-04-15T03:13:31.371Z,8.20
2023-04-15T03:15:58.333Z,8.20
2023-04-15T03:18:25.458Z,8.20
2023-04-15T03:20:52.415Z,8.20
2023-04-15T03:23:19.405Z,8.00
2023-04-15T03:25:46.355Z,8.00
2023-04-15T03:28:13.299Z,7.90
2023-04-15T03:30:40.308Z,7.80
2023-04-15T03:33:07.305Z,7.80
2023-04-15T03:35:34.646Z,7.60
2023-04-15T03:38:01.555Z,7.60
2023-04-15T03:40:28.476Z,7.60
2023-04-15T03:42:55.447Z,7.70
2023-04-15T03:45:22.315Z,7.80
2023-04-15T03:47:49.902Z,7.80
2023-04-15T03:50:16.991Z,7.80
2023-04-15T03:52:44.889Z,7.80
2023-04-15T03:55:11.921Z,7.70
2023-04-15T03:57:39.816Z,7.70
2023-04-15T04:00:08.008Z,7.80
2023-04-15T04:02:35.122Z,7.80
2023-04-15T04:05:02.290Z,7.80
2023-04-15T04:07:29.242Z,7.60
2023-04-15T04:09:57.906Z,7.60
2023-04-15T04:12:24.826Z,7.70
2023-04-15T04:14:51.700Z,7.80
2023-04-15T04:17:19.129Z,7.80
2023-04-15T04:19:46.474Z,7.70
2023-04-15T04:22:13.441Z,7.60
2023-04-15T04:24:40.451Z,7.50
2023-04-15T04:27:07.337Z,7.50
2023-04-15T04:29:34.355Z,7.50
2023-04-15T04:32:01.344Z,7.50
2023-04-15T04:34:28.265Z,7.50
2023-04-15T04:36:55.277Z,7.50
2023-04-15T04:39:22.241Z,7.50
2023-04-15T04:41:49.973Z,7.50
2023-04-15T04:44:17.065Z,7.40
2023-04-15T04:46:44.061Z,7.30
2023-04-15T04:49:11.443Z,7.00
2023-04-15T04:51:38.438Z,6.90
2023-04-15T04:54:05.406Z,6.80
2023-04-15T04:56:32.367Z,6.70
2023-04-15T04:58:59.416Z,6.60
2023-04-15T05:01:27.658Z,6.60
2023-04-15T05:03:55.111Z,6.60
2023-04-15T05:06:22.448Z,6.70
2023-04-15T05:08:49.393Z,6.80
2023-04-15T05:11:17.008Z,6.90
2023-04-15T05:13:43.958Z,6.80
2023-04-15T05:16:10.937Z,6.80
2023-04-15T05:18:38.052Z,6.80
2023-04-15T05:21:05.224Z,6.90
2023-04-15T05:23:32.312Z,6.90
2023-04-15T05:25:59.269Z,6.70
2023-04-15T05:28:26.162Z,6.70
2023-04-15T05:30:53.159Z,6.50
2023-04-15T05:33:20.163Z,6.50
2023-04-15T05:35:47.049Z,6.40
2023-04-15T05:38:16.441Z,6.30
2023-04-15T05:40:43.357Z,6.00
2023-04-15T05:43:10.700Z,6.00
2023-04-15T05:45:37.565Z,5.90
2023-04-15T05:48:04.535Z,5.90
2023-04-15T05:50:31.561Z,5.90
2023-04-15T05:52:58.411Z,5.90
2023-04-15T05:55:25.859Z,6.10
2023-04-15T05:57:53.211Z,5.80
2023-04-15T06:00:20.216Z,5.70
2023-04-15T06:02:47.827Z,5.70
2023-04-15T06:05:14.953Z,5.70
2023-04-15T06:07:44.735Z,5.40
2023-04-15T06:10:12.953Z,5.30
2023-04-15T06:12:40.023Z,5.30
2023-04-15T06:15:10.097Z,5.30
2023-04-15T06:17:37.458Z,5.40
2023-04-15T06:20:05.161Z,5.40
2023-04-15T06:22:32.126Z,5.40
2023-04-15T06:24:59.126Z,5.50
2023-04-15T06:27:26.256Z,5.60
2023-04-15T06:29:53.219Z,5.60
2023-04-15T06:32:20.126Z,5.50
2023-04-15T06:34:47.259Z,5.50
2023-04-15T06:37:16.417Z,5.50
2023-04-15T06:39:44.770Z,5.60
2023-04-15T06:42:12.198Z,5.60
2023-04-15T06:44:39.181Z,5.70
2023-04-15T06:47:06.101Z,5.70
2023-04-15T06:49:33.815Z,5.70
2023-04-15T06:52:01.095Z,5.70
2023-04-15T06:54:28.138Z,5.80
2023-04-15T06:56:55.221Z,5.80
2023-04-15T06:59:22.174Z,5.70
2023-04-15T07:01:49.100Z,5.70
2023-04-15T07:04:16.427Z,5.70
2023-04-15T07:06:43.359Z,5.70
2023-04-15T07:09:10.792Z,5.80
2023-04-15T07:11:37.640Z,5.90
2023-04-15T07:14:04.835Z,5.90
2023-04-15T07:16:31.998Z,5.90
2023-04-15T07:18:59.029Z,5.80
2023-04-15T07:21:27.796Z,5.90
2023-04-15T07:23:55.045Z,5.90
2023-04-15T07:26:21.933Z,5.90
2023-04-15T07:28:49.565Z,6.00
2023-04-15T07:31:17.540Z,6.10
2023-04-15T07:33:44.526Z,6.10
2023-04-15T07:36:15.264Z,6.10
2023-04-15T07:38:45.026Z,6.10
2023-04-15T07:41:12.015Z,6.00
2023-04-15T07:43:39.162Z,5.90
2023-04-15T07:46:06.115Z,5.90
2023-04-15T07:48:33.732Z,6.10
2023-04-15T07:51:02.361Z,6.20
2023-04-15T07:53:29.348Z,6.20
2023-04-15T07:55:56.222Z,6.40
2023-04-15T07:58:23.158Z,6.50
2023-04-15T08:00:50.443Z,6.60
2023-04-15T08:03:17.534Z,6.80
2023-04-15T08:05:44.777Z,6.80
2023-04-15T08:08:11.673Z,6.90
2023-04-15T08:10:38.602Z,6.90
2023-04-15T08:13:06.048Z,6.90
2023-04-15T08:15:33.271Z,7.00
2023-04-15T08:18:03.221Z,7.00
2023-04-15T08:20:30.196Z,7.20
2023-04-15T08:22:57.242Z,7.20
2023-04-15T08:25:24.255Z,7.30
2023-04-15T08:27:51.753Z,7.30
2023-04-15T08:30:19.557Z,7.40
2023-04-15T08:32:49.764Z,7.40
2023-04-15T08:35:16.823Z,7.50
2023-04-15T08:37:43.721Z,7.60
2023-04-15T08:40:11.629Z,7.70
2023-04-15T08:42:49.117Z,7.70
2023-04-15T08:45:17.402Z,7.80
2023-04-15T08:47:47.541Z,7.90
2023-04-15T08:50:16.479Z,8.00
2023-04-15T08:52:43.881Z,8.10
2023-04-15T08:55:13.960Z,8.10
2023-04-15T08:57:40.946Z,8.20
2023-04-15T09:00:09.483Z,8.20
2023-04-15T09:02:36.914Z,8.30
2023-04-15T09:05:06.514Z,8.40
2023-04-15T09:07:36.826Z,8.60
2023-04-15T09:10:04.796Z,8.60
2023-04-15T09:12:34.107Z,8.70
2023-04-15T09:15:01.554Z,8.90
2023-04-15T09:17:28.682Z,9.00
2023-04-15T09:20:13.711Z,9.10
2023-04-15T09:22:45.807Z,9.20
2023-04-15T09:25:15.742Z,9.30
2023-04-15T09:27:53.784Z,9.50
2023-04-15T09:30:22.556Z,9.70
2023-04-15T09:32:57.494Z,9.80
2023-04-15T09:35:25.749Z,10.00
2023-04-15T09:37:54.019Z,10.10
2023-04-15T09:40:39.283Z,10.30
2023-04-15T09:43:07.706Z,10.50
2023-04-15T09:45:35.924Z,10.50
2023-04-15T09:48:23.567Z,10.60
2023-04-15T09:50:51.338Z,10.80
2023-04-15T09:53:24.361Z,10.90
2023-04-15T09:56:00.864Z,11.10
2023-04-15T09:58:30.744Z,11.30
2023-04-15T10:00:58.803Z,11.50
2023-04-15T10:03:28.740Z,11.50
2023-04-15T10:05:57.651Z,11.70
2023-04-15T10:08:28.143Z,11.70
2023-04-15T10:10:56.321Z,11.90
2023-04-15T10:13:26.386Z,11.80
2023-04-15T10:15:58.392Z,11.30
2023-04-15T10:18:29.631Z,10.80
2023-04-15T10:20:56.684Z,11.00
2023-04-15T10:23:25.922Z,11.10
2023-04-15T10:25:56.646Z,11.30
2023-04-15T10:28:23.545Z,11.60
2023-04-15T10:30:52.141Z,11.90
2023-04-15T10:33:22.679Z,11.70
2023-04-15T10:35:51.805Z,11.90
2023-04-15T10:38:45.854Z,11.80
2023-04-15T10:41:35.266Z,11.90
2023-04-15T10:44:05.469Z,12.30
2023-04-15T10:46:39.534Z,12.40
2023-04-15T10:49:20.961Z,12.70
2023-04-15T10:51:53.103Z,13.00
2023-04-15T10:54:26.011Z,13.20
2023-04-15T10:57:23.094Z,13.40
2023-04-15T11:00:03.394Z,13.00
2023-04-15T11:02:42.928Z,13.50
2023-04-15T11:05:11.606Z,13.40
2023-04-15T11:07:51.785Z,13.90
2023-04-15T11:10:18.739Z,14.00
2023-04-15T11:12:46.630Z,14.20
2023-04-15T11:15:34.700Z,13.60
2023-04-15T11:18:12.306Z,13.50
2023-04-15T11:20:41.684Z,13.30
2023-04-15T11:23:15.029Z,13.50
2023-04-15T11:25:43.916Z,14.10
2023-04-15T11:28:12.549Z,14.20
2023-04-15T11:30:40.890Z,14.30
2023-04-15T11:33:09.849Z,15.00
2023-04-15T11:35:36.923Z,15.10
2023-04-15T11:38:05.505Z,15.30
2023-04-15T11:40:33.583Z,15.60
2023-04-15T11:43:10.383Z,16.00
2023-04-15T11:45:48.364Z,16.50
2023-04-15T11:48:15.643Z,16.80
2023-04-15T11:50:42.573Z,17.00
2023-04-15T11:53:11.947Z,17.20
2023-04-15T11:55:50.610Z,17.20
2023-04-15T11:58:21.972Z,17.10
2023-04-15T12:00:57.830Z,17.30
2023-04-15T12:03:30.092Z,17.70
2023-04-15T12:06:24.763Z,18.00
2023-04-15T12:09:06.923Z,18.50
2023-04-15T12:11:45.440Z,18.70
2023-04-15T12:14:26.214Z,19.00
2023-04-15T12:16:58.696Z,17.70
2023-04-15T12:19:37.336Z,17.20
2023-04-15T12:22:10.440Z,17.10
2023-04-15T12:24:38.794Z,17.60
2023-04-15T12:27:07.873Z,18.60
2023-04-15T12:29:39.742Z,19.40
2023-04-15T12:32:19.799Z,20.00
2023-04-15T12:34:54.540Z,18.70
2023-04-15T12:37:21.671Z,19.90
2023-04-15T12:39:50.074Z,21.30
2023-04-15T12:42:18.068Z,19.60
2023-04-15T12:44:45.266Z,21.40
2023-04-15T12:47:13.239Z,21.80
2023-04-15T12:49:41.238Z,21.70
2023-04-15T12:52:08.402Z,19.80
2023-04-15T12:54:36.172Z,20.00
2023-04-15T12:57:06.948Z,20.90
2023-04-15T12:59:34.961Z,22.70
2023-04-15T13:02:03.031Z,22.80
2023-04-15T13:04:33.145Z,23.00
2023-04-15T13:07:00.250Z,23.20
2023-04-15T13:09:27.203Z,25.20
2023-04-15T13:11:54.684Z,25.60
2023-04-15T13:14:21.760Z,24.10
2023-04-15T13:16:48.784Z,21.40
2023-04-15T13:19:15.928Z,21.00
2023-04-15T13:21:42.955Z,22.10
2023-04-15T13:24:09.963Z,23.60
2023-04-15T13:26:37.917Z,23.10
2023-04-15T13:29:05.724Z,24.20
2023-04-15T13:31:32.755Z,24.90
2023-04-15T13:33:59.799Z,24.00
2023-04-15T13:36:27.524Z,24.70
2023-04-15T13:38:54.725Z,24.60
2023-04-15T13:41:21.973Z,24.90
2023-04-15T13:43:48.921Z,25.50
2023-04-15T13:46:16.167Z,24.40
2023-04-15T13:48:43.180Z,25.00
2023-04-15T13:51:10.060Z,25.10
2023-04-15T13:53:38.922Z,25.20
2023-04-15T13:56:09.905Z,25.80
2023-04-15T13:58:37.978Z,25.10
2023-04-15T14:01:07.008Z,24.50
2023-04-15T14:03:36.184Z,23.30
2023-04-15T14:06:03.655Z,23.60
2023-04-15T14:08:31.132Z,22.70
2023-04-15T14:10:58.143Z,22.70
2023-04-15T14:13:25.319Z,23.80
2023-04-15T14:15:52.253Z,24.50
2023-04-15T14:18:19.141Z,23.80
2023-04-15T14:20:46.119Z,23.30
2023-04-15T14:23:13.089Z,23.70
2023-04-15T14:25:40.109Z,23.70
2023-04-15T14:28:09.528Z,24.10
2023-04-15T14:30:36.677Z,25.00
2023-04-15T14:33:04.250Z,26.20
2023-04-15T14:35:31.616Z,25.60
2023-04-15T14:37:58.653Z,25.20
2023-04-15T14:40:25.824Z,24.30
2023-04-15T14:42:52.754Z,25.10
2023-04-15T14:45:19.662Z,25.70
2023-04-15T14:47:47.333Z,25.60
2023-04-15T14:50:14.306Z,25.30
2023-04-15T14:52:41.307Z,24.30
2023-04-15T14:55:12.498Z,24.50
2023-04-15T14:57:41.199Z,24.80
2023-04-15T15:00:10.702Z,24.60
2023-04-15T15:02:40.243Z,25.00
2023-04-15T15:05:09.061Z,24.70
2023-04-15T15:07:39.538Z,25.00
2023-04-15T15:10:07.458Z,24.60
2023-04-15T15:12:34.491Z,22.50
2023-04-15T15:15:04.974Z,23.40
2023-04-15T15:17:36.505Z,23.80
2023-04-15T15:20:04.185Z,24.20
2023-04-15T15:22:31.057Z,24.40
2023-04-15T15:24:59.332Z,24.30
2023-04-15T15:27:26.219Z,24.70
2023-04-15T15:29:53.196Z,21.40
2023-04-15T15:32:20.175Z,21.40
2023-04-15T15:34:47.106Z,21.10
2023-04-15T15:37:14.024Z,22.10
2023-04-15T15:39:41.316Z,23.30
2023-04-15T15:42:08.231Z,22.90
2023-04-15T15:44:36.364Z,22.90
2023-04-15T15:47:03.575Z,22.70
2023-04-15T15:49:30.704Z,20.80
2023-04-15T15:51:57.715Z,22.10
2023-04-15T15:54:24.962Z,23.00
2023-04-15T15:56:53.262Z,23.20
2023-04-15T15:59:20.126Z,22.70
2023-04-15T16:01:48.300Z,22.60
2023-04-15T16:04:15.357Z,23.10
2023-04-15T16:06:44.636Z,22.70
2023-04-15T16:09:11.511Z,22.80
2023-04-15T16:11:38.656Z,23.20
2023-04-15T16:14:05.658Z,22.90
2023-04-15T16:16:32.633Z,23.00
2023-04-15T16:18:59.698Z,22.50
2023-04-15T16:21:27.414Z,22.50
2023-04-15T16:23:54.419Z,21.70
2023-04-15T16:26:21.853Z,21.30
2023-04-15T16:28:48.863Z,21.70
2023-04-15T16:31:15.897Z,21.70
2023-04-15T16:33:42.822Z,22.00
2023-04-15T16:36:09.740Z,21.40
2023-04-15T16:38:36.644Z,19.80
2023-04-15T16:41:03.639Z,19.60
2023-04-15T16:43:30.545Z,19.90
2023-04-15T16:45:57.411Z,19.90
2023-04-15T16:48:24.358Z,19.50
2023-04-15T16:50:51.225Z,18.80
2023-04-15T16:53:18.506Z,19.30
2023-04-15T16:55:45.989Z,19.70
2023-04-15T16:58:12.865Z,19.40
2023-04-15T17:00:39.886Z,19.40
2023-04-15T17:03:06.948Z,19.50
2023-04-15T17:05:34.133Z,19.30
2023-04-15T17:08:01.118Z,19.40
2023-04-15T17:10:28.492Z,19.00
2023-04-15T17:12:59.261Z,18.70
2023-04-15T17:15:26.628Z,18.70
2023-04-15T17:17:53.924Z,18.50
2023-04-15T17:20:20.999Z,18.10
2023-04-15T17:22:48.968Z,18.10
2023-04-15T17:25:16.025Z,17.90
2023-04-15T17:27:46.209Z,17.80
2023-04-15T17:30:13.158Z,17.70
2023-04-15T17:32:40.364Z,17.30
2023-04-15T17:35:08.207Z,17.30
2023-04-15T17:37:35.374Z,16.90
2023-04-15T17:40:03.079Z,15.90
2023-04-15T17:42:29.972Z,15.30
2023-04-15T17:44:56.888Z,15.00
2023-04-15T17:47:23.872Z,14.80
2023-04-15T17:49:50.866Z,15.30
2023-04-15T17:52:17.725Z,15.50
2023-04-15T17:54:46.202Z,15.10
2023-04-15T17:57:13.121Z,14.70
2023-04-15T17:59:44.074Z,14.70
2023-04-15T18:02:11.696Z,14.60
2023-04-15T18:04:39.290Z,14.70
2023-04-15T18:07:06.724Z,14.50
2023-04-15T18:09:33.654Z,14.40
2023-04-15T18:12:01.744Z,14.70
2023-04-15T18:14:34.768Z,14.70
2023-04-15T18:17:05.191Z,14.70
2023-04-15T18:19:32.314Z,14.80
2023-04-15T18:22:03.306Z,14.80
2023-04-15T18:24:30.440Z,14.70
2023-04-15T18:26:57.528Z,14.60
2023-04-15T18:29:25.614Z,14.20
2023-04-15T18:31:52.826Z,14.30
2023-04-15T18:34:19.806Z,14.20
2023-04-15T18:36:46.819Z,14.30
2023-04-15T18:39:14.166Z,14.20
2023-04-15T18:41:41.103Z,14.10
2023-04-15T18:44:08.341Z,14.00
2023-04-15T18:46:35.491Z,13.60
2023-04-15T18:49:02.541Z,13.50
2023-04-15T18:51:29.731Z,13.50
